Time;durP1;ratioP1;P1;durP2;ratioP2;P2;SDS_P1;SDS_P2;PMS_P1;PMS_P2;Temp;Humidity;BMP_temperature;BMP_pressure;BME280_temperature;BME280_humidity;BME280_pressure;Samples;Min_cycle;Max_cycle;Signal;HPM_P1;HPM_P2
2022/07/17 00:02:14;;;;;;;2.88;1.90;;;20.00;52.30;;;20.03;62.08;101319.47;4964443;28;20047;-78
2022/07/17 00:04:42;;;;;;;4.20;2.35;;;20.00;52.50;;;20.02;61.16;101334.63;4964738;28;20198;-75
2022/07/17 00:07:09;;;;;;;9.45;2.35;;;20.00;52.40;;;20.02;62.90;101337.28;4960735;28;20046;-75
2022/07/17 00:09:36;;;;;;;5.18;2.33;;;20.00;52.70;;;19.88;63.91;101335.25;4959949;28;20058;-75
2022/07/17 00:12:04;;;;;;;3.28;2.03;;;19.90;52.70;;;19.91;63.17;101331.59;4960500;28;20055;-76
2022/07/17 00:14:33;;;;;;;5.07;2.03;;;19.90;52.70;;;19.73;66.61;101328.81;4956574;28;20051;-76
2022/07/17 00:17:00;;;;;;;3.90;2.10;;;19.80;53.10;;;19.68;68.45;101322.84;4964121;28;20548;-76
2022/07/17 00:19:27;;;;;;;2.58;1.95;;;19.80;53.40;;;19.68;67.60;101323.72;4957462;28;20054;-76
2022/07/17 00:21:54;;;;;;;3.20;1.80;;;19.80;53.40;;;19.63;68.35;101324.88;4956820;28;20055;-76
2022/07/17 00:24:21;;;;;;;3.28;2.03;;;19.70;53.60;;;19.60;68.54;101322.38;4959725;28;20070;-76
2022/07/17 00:26:50;;;;;;;4.28;2.58;;;19.70;53.60;;;19.51;68.00;101318.28;4960112;28;20050;-77
2022/07/17 00:29:18;;;;;;;3.50;2.10;;;19.60;53.60;;;19.42;68.97;101316.91;4955712;28;20133;-76
2022/07/17 00:31:46;;;;;;;6.32;2.10;;;19.50;53.60;;;19.39;65.33;101325.06;4962239;28;21181;-77
2022/07/17 00:34:13;;;;;;;3.17;1.80;;;19.50;53.20;;;19.41;64.90;101333.88;4967373;28;20055;-77
2022/07/17 00:36:40;;;;;;;2.53;1.70;;;19.50;53.30;;;19.47;63.09;101336.28;4967714;28;20050;-75
2022/07/17 00:39:07;;;;;;;4.97;2.20;;;19.40;53.10;;;19.48;60.74;101330.00;4965339;28;20065;-78
2022/07/17 00:41:35;;;;;;;2.83;1.92;;;19.30;52.60;;;19.44;62.56;101341.75;4968036;28;20134;-74
2022/07/17 00:44:08;;;;;;;3.10;2.03;;;19.40;53.00;;;19.37;64.20;101342.97;4960366;28;20059;-79
2022/07/17 00:46:36;;;;;;;2.85;1.98;;;19.40;53.10;;;19.23;66.23;101339.13;4969634;28;20090;-76
2022/07/17 00:49:04;;;;;;;4.07;1.98;;;19.30;53.50;;;19.08;69.92;101337.13;4965821;28;20047;-74
2022/07/17 00:51:32;;;;;;;4.65;2.25;;;19.50;54.10;;;19.02;68.89;101340.94;4959357;28;20133;-74
2022/07/17 00:54:01;;;;;;;2.47;1.90;;;19.20;53.80;;;18.87;72.30;101339.78;4955142;28;20055;-75
2022/07/17 00:56:37;;;;;;;3.53;2.05;;;19.10;54.30;;;18.91;72.05;101328.03;4956825;28;20051;-76
2022/07/17 00:59:06;;;;;;;3.10;2.03;;;19.00;54.50;;;18.75;75.22;101329.66;4954718;28;20412;-74
2022/07/17 01:01:33;;;;;;;3.13;2.05;;;19.00;54.90;;;18.62;80.75;101332.84;4946861;28;20288;-74
2022/07/17 01:04:00;;;;;;;4.93;1.98;;;18.90;55.60;;;18.45;83.46;101330.91;4916932;28;20137;-73
2022/07/17 01:06:27;;;;;;;4.88;2.17;;;18.70;55.80;;;18.35;85.72;101330.41;4918053;28;20058;-73
2022/07/17 01:08:54;;;;;;;3.85;2.35;;;18.70;56.40;;;18.30;83.81;101324.41;4935817;28;20063;-75
2022/07/17 01:11:21;;;;;;;3.40;2.30;;;18.60;56.10;;;18.36;83.10;101334.81;4922230;28;20098;-77
2022/07/17 01:13:48;;;;;;;5.47;2.63;;;18.50;56.20;;;18.21;87.50;101335.44;4907697;28;20066;-76
2022/07/17 01:16:16;;;;;;;4.45;2.38;;;18.40;56.80;;;18.10;87.97;101326.09;4921605;28;20140;-74
2022/07/17 01:18:43;;;;;;;3.75;2.05;;;18.40;56.90;;;18.25;84.27;101339.72;4931445;28;20083;-74
2022/07/17 01:21:10;;;;;;;3.08;2.40;;;18.30;56.60;;;18.08;88.50;101343.94;4928566;28;20058;-76
2022/07/17 01:23:37;;;;;;;8.20;2.95;;;18.30;57.40;;;18.05;89.63;101340.50;4900732;28;20074;-74
2022/07/17 01:26:04;;;;;;;4.38;2.75;;;18.20;57.60;;;18.02;89.05;101343.28;4946332;28;20489;-74
2022/07/17 01:28:32;;;;;;;5.55;2.22;;;18.20;57.80;;;17.88;91.07;101347.34;4922750;28;20150;-75
2022/07/17 01:31:02;;;;;;;3.47;2.33;;;18.20;58.00;;;17.91;89.23;101341.88;4927409;28;20055;-77
2022/07/17 01:33:30;;;;;;;3.63;2.08;;;18.10;57.80;;;17.78;94.81;101335.31;4932083;28;21683;-79
2022/07/17 01:35:57;;;;;;;4.90;2.42;;;18.00;58.70;;;17.59;97.15;101336.03;4949016;28;20054;-77
2022/07/17 01:38:24;;;;;;;2.65;2.33;;;17.90;59.20;;;17.36;100.00;101340.44;4968448;28;20050;-76
2022/07/17 01:40:51;;;;;;;5.70;2.47;;;17.80;59.90;;;17.31;100.00;101341.53;4965390;28;20054;-78
2022/07/17 01:43:19;;;;;;;2.42;2.22;;;17.70;60.30;;;17.34;100.00;101342.28;4962456;28;20065;-79
2022/07/17 01:45:46;;;;;;;6.43;2.67;;;17.60;60.80;;;17.29;100.00;101333.59;4952805;28;20873;-76
2022/07/17 01:48:27;;;;;;;4.22;2.20;;;17.50;60.90;;;17.19;100.00;101346.34;4961060;28;20054;-75
2022/07/17 01:50:54;;;;;;;3.30;2.33;;;17.50;61.10;;;17.27;97.64;101340.75;4961446;28;20060;-76
2022/07/17 01:53:21;;;;;;;4.82;2.35;;;17.40;61.40;;;17.27;97.45;101346.97;4959114;28;20069;-73
2022/07/17 01:55:48;;;;;;;6.88;2.50;;;18.00;61.40;;;17.24;96.76;101352.34;4956468;28;20784;-75
2022/07/17 01:58:15;;;;;;;4.30;2.10;;;17.40;61.10;;;17.17;98.30;101349.97;4946869;28;20644;-72
2022/07/17 02:00:42;;;;;;;3.45;2.33;;;17.30;61.50;;;17.20;98.17;101358.72;4960310;28;20616;-77
2022/07/17 02:03:10;;;;;;;5.25;2.42;;;17.30;61.70;;;17.02;100.00;101352.28;4961917;28;20047;-72
2022/07/17 02:05:37;;;;;;;5.88;2.65;;;17.30;62.40;;;17.08;99.89;101353.84;4955408;28;20109;-75
2022/07/17 02:08:05;;;;;;;3.50;2.60;;;17.10;62.30;;;17.05;99.91;101354.84;4955763;28;20047;-76
2022/07/17 02:10:32;;;;;;;3.55;2.55;;;17.20;62.70;;;16.96;100.00;101356.00;4957207;28;20050;-72
2022/07/17 02:12:59;;;;;;;3.92;2.60;;;17.20;63.40;;;16.75;100.00;101354.06;4956951;28;20444;-73
2022/07/17 02:15:27;;;;;;;4.13;2.90;;;17.10;64.10;;;16.77;100.00;101349.56;4959020;28;20053;-74
2022/07/17 02:17:54;;;;;;;4.80;3.17;;;17.60;64.60;;;16.75;100.00;101341.66;4963028;28;20050;-76
2022/07/17 02:20:21;;;;;;;3.42;2.80;;;16.90;64.70;;;16.76;100.00;101346.06;4957836;28;20043;-76
2022/07/17 02:22:49;;;;;;;4.97;2.50;;;17.00;65.20;;;16.69;100.00;101337.44;4956231;28;20677;-73
2022/07/17 02:25:16;;;;;;;3.75;2.47;;;17.00;66.00;;;16.68;100.00;101341.00;4957912;28;20069;-75
2022/07/17 02:27:43;;;;;;;2.90;2.38;;;16.90;65.80;;;16.63;100.00;101334.09;4961358;28;20687;-73
2022/07/17 02:30:15;;;;;;;2.78;2.42;;;16.80;66.30;;;16.56;100.00;101334.31;4952257;28;20686;-74
2022/07/17 02:32:44;;;;;;;5.20;2.55;;;17.30;67.10;;;16.52;100.00;101334.47;4974771;28;20097;-73
2022/07/17 02:35:12;;;;;;;4.82;2.95;;;16.70;66.70;;;16.50;100.00;101336.31;4960569;28;20051;-74
2022/07/17 02:37:42;;;;;;;3.92;2.70;;;16.70;68.00;;;16.51;100.00;101343.38;4957815;28;20046;-75
2022/07/17 02:40:10;;;;;;;4.55;2.72;;;16.70;68.70;;;16.36;100.00;101339.41;4952053;28;20129;-76
2022/07/17 02:42:38;;;;;;;3.28;2.67;;;16.60;69.80;;;16.31;100.00;101339.56;4961926;28;20407;-76
2022/07/17 02:45:06;;;;;;;4.22;2.55;;;16.50;70.50;;;16.26;100.00;101331.78;4956402;28;20047;-74
2022/07/17 02:47:34;;;;;;;2.80;2.40;;;16.50;71.30;;;16.03;100.00;101337.81;4974398;28;20071;-74
2022/07/17 02:50:06;;;;;;;3.88;2.80;;;16.40;72.60;;;15.86;100.00;101344.47;4957290;28;20129;-75
2022/07/17 02:52:33;;;;;;;3.20;2.83;;;16.30;72.70;;;16.01;100.00;101339.66;4957353;28;20511;-75
2022/07/17 02:55:01;;;;;;;5.25;2.88;;;16.20;72.70;;;16.03;100.00;101340.47;4957201;28;20078;-76
2022/07/17 02:57:27;;;;;;;4.03;2.50;;;16.20;73.80;;;16.06;100.00;101336.81;4958880;28;20058;-76
2022/07/17 02:59:54;;;;;;;6.18;3.15;;;16.10;74.40;;;16.01;100.00;101331.69;4958837;28;20054;-76
2022/07/17 03:02:21;;;;;;;4.05;2.83;;;16.40;75.10;;;15.98;100.00;101334.41;4957310;28;20062;-75
2022/07/17 03:04:48;;;;;;;3.13;2.55;;;16.20;76.70;;;15.77;100.00;101343.91;4990959;28;20050;-75
2022/07/17 03:07:16;;;;;;;5.60;2.75;;;16.10;77.10;;;15.70;100.00;101336.09;4969502;28;20117;-74
2022/07/17 03:09:43;;;;;;;3.78;2.85;;;16.00;77.60;;;15.54;100.00;101333.06;4968667;28;20053;-77
2022/07/17 03:12:10;;;;;;;4.47;2.60;;;16.00;79.00;;;15.51;100.00;101330.47;4952900;28;20759;-75
2022/07/17 03:14:37;;;;;;;4.47;2.85;;;15.90;79.70;;;15.55;100.00;101332.13;4970733;28;20531;-75
2022/07/17 03:17:04;;;;;;;2.88;2.58;;;15.80;79.90;;;15.50;100.00;101336.69;4941299;28;20047;-76
2022/07/17 03:19:31;;;;;;;4.05;2.70;;;15.80;80.30;;;15.52;100.00;101334.00;4957803;28;20049;-76
2022/07/17 03:21:58;;;;;;;4.70;2.40;;;15.80;80.20;;;15.62;100.00;101340.78;4960238;28;20061;-77
2022/07/17 03:24:25;;;;;;;3.90;2.80;;;15.70;80.80;;;15.58;100.00;101340.00;4958679;28;20069;-76
2022/07/17 03:26:52;;;;;;;4.00;2.38;;;15.70;80.70;;;15.55;100.00;101340.09;4956929;28;20493;-76
2022/07/17 03:29:19;;;;;;;4.50;3.05;;;15.70;81.00;;;15.53;100.00;101333.09;4959116;28;20061;-76
2022/07/17 03:31:49;;;;;;;3.40;2.63;;;15.80;81.70;;;15.53;100.00;101341.03;4958160;28;20118;-76
2022/07/17 03:34:16;;;;;;;3.20;2.80;;;15.70;81.80;;;15.30;100.00;101338.13;4945375;28;20054;-72
2022/07/17 03:36:43;;;;;;;3.80;2.90;;;15.70;82.90;;;15.39;100.00;101347.63;4958707;28;20046;-72
2022/07/17 03:39:11;;;;;;;4.63;3.25;;;15.60;83.10;;;15.18;100.00;101349.09;4960317;28;20073;-77
2022/07/17 03:41:38;;;;;;;4.32;2.70;;;15.80;84.10;;;15.11;100.00;101348.38;4959544;28;20054;-74
2022/07/17 03:44:05;;;;;;;3.33;2.80;;;15.40;84.90;;;15.00;100.00;101342.53;4958827;28;20072;-76
2022/07/17 03:46:33;;;;;;;4.22;2.50;;;15.40;85.60;;;15.07;100.00;101349.38;4951859;28;20050;-75
2022/07/17 03:49:01;;;;;;;3.40;3.10;;;15.30;85.60;;;15.09;100.00;101346.69;4956666;28;20059;-75
2022/07/17 03:51:28;;;;;;;4.80;3.20;;;15.30;86.10;;;15.08;100.00;101348.47;4956010;28;20046;-75
2022/07/17 03:53:55;;;;;;;3.00;2.67;;;14.20;85.10;;;15.10;100.00;101341.34;4955929;28;20054;-75
2022/07/17 03:56:22;;;;;;;5.53;3.08;;;15.30;86.50;;;15.04;100.00;101349.47;4973477;28;20047;-75
2022/07/17 03:58:49;;;;;;;3.80;3.38;;;15.30;86.90;;;15.05;100.00;101347.66;4940598;28;20115;-75
2022/07/17 04:01:16;;;;;;;4.90;3.00;;;15.30;87.10;;;15.02;100.00;101346.00;4953840;28;20053;-75
2022/07/17 04:03:44;;;;;;;3.55;2.88;;;15.30;87.10;;;15.02;100.00;101352.16;4956851;28;20047;-75
2022/07/17 04:06:11;;;;;;;3.70;2.90;;;15.40;87.80;;;14.94;100.00;101354.16;4957852;28;20054;-75
2022/07/17 04:08:38;;;;;;;3.05;2.70;;;15.20;87.80;;;15.08;100.00;101353.78;4953710;28;20570;-76
2022/07/17 04:11:05;;;;;;;3.42;3.05;;;15.00;87.70;;;14.96;100.00;101360.28;4935059;28;20067;-75
2022/07/17 04:13:37;;;;;;;3.95;3.10;;;15.20;88.70;;;14.82;100.00;101355.31;4936874;28;20062;-75
2022/07/17 04:16:05;;;;;;;3.65;3.00;;;15.20;89.20;;;14.97;100.00;101359.38;4917851;28;20051;-75
2022/07/17 04:18:35;;;;;;;3.75;2.90;;;15.10;89.50;;;15.07;100.00;101361.78;4921799;28;20094;-75
2022/07/17 04:21:06;;;;;;;3.35;2.72;;;15.20;89.30;;;14.98;100.00;101365.50;4934138;28;20515;-76
2022/07/17 04:23:34;;;;;;;4.55;3.40;;;15.20;89.60;;;14.98;100.00;101370.81;4934047;28;20888;-75
2022/07/17 04:26:03;;;;;;;3.97;2.80;;;15.20;90.20;;;15.06;100.00;101357.34;4922213;28;20063;-75
2022/07/17 04:28:37;;;;;;;3.33;2.35;;;15.20;89.70;;;15.02;100.00;101360.09;4951053;28;20062;-75
2022/07/17 04:31:04;;;;;;;3.58;2.88;;;15.20;89.80;;;15.19;100.00;101364.06;4932162;28;20059;-75
2022/07/17 04:33:32;;;;;;;4.80;3.38;;;15.20;89.50;;;15.09;100.00;101362.59;4917696;28;20055;-75
2022/07/17 04:35:59;;;;;;;4.47;3.30;;;15.30;90.10;;;15.10;100.00;101372.28;4934650;28;20059;-76
2022/07/17 04:38:26;;;;;;;3.85;2.92;;;15.30;90.20;;;15.08;100.00;101376.78;4948968;28;20059;-75
2022/07/17 04:40:53;;;;;;;7.00;2.83;;;15.20;90.40;;;15.13;100.00;101372.19;4928253;28;20906;-75
2022/07/17 04:43:20;;;;;;;5.75;3.30;;;15.30;90.40;;;15.14;100.00;101374.81;4941450;28;20547;-76
2022/07/17 04:45:47;;;;;;;4.13;2.83;;;15.30;90.60;;;15.15;100.00;101376.56;4974045;28;20058;-73
2022/07/17 04:48:14;;;;;;;3.90;3.08;;;15.90;91.00;;;15.19;100.00;101368.53;4959496;28;20058;-75
2022/07/17 04:50:41;;;;;;;4.13;3.22;;;15.30;91.00;;;15.26;100.00;101376.25;4957062;28;20392;-77
2022/07/17 04:53:08;;;;;;;5.07;3.35;;;15.30;90.90;;;15.28;100.00;101363.84;4956967;28;20066;-77
2022/07/17 04:55:36;;;;;;;5.20;4.20;;;15.40;90.90;;;15.37;100.00;101368.00;4954666;28;20057;-74
2022/07/17 04:58:03;;;;;;;5.25;2.97;;;15.70;90.80;;;15.43;100.00;101374.91;4956052;28;20050;-74
2022/07/17 05:00:30;;;;;;;6.50;3.33;;;15.60;90.80;;;15.48;100.00;101385.41;4953148;28;20051;-76
2022/07/17 05:02:58;;;;;;;6.68;3.00;;;15.60;90.90;;;15.52;100.00;101373.78;4953256;28;20043;-75
2022/07/17 05:05:25;;;;;;;4.38;2.83;;;15.60;91.00;;;15.60;100.00;101382.38;4961629;28;20420;-75
2022/07/17 05:07:53;;;;;;;4.60;3.08;;;15.60;90.60;;;15.75;100.00;101381.06;4967742;28;20047;-75
2022/07/17 05:10:20;;;;;;;3.72;2.50;;;15.70;90.50;;;15.92;100.00;101377.97;4966730;28;20129;-76
2022/07/17 05:12:53;;;;;;;3.00;2.70;;;15.80;90.80;;;15.94;100.00;101384.09;4959366;28;20051;-76
2022/07/17 05:15:20;;;;;;;4.18;3.22;;;15.90;91.00;;;16.15;100.00;101385.19;4944849;28;20055;-76
2022/07/17 05:17:48;;;;;;;4.28;2.85;;;16.00;91.20;;;16.37;100.00;101383.63;4963846;28;20601;-76
2022/07/17 05:20:15;;;;;;;5.07;2.70;;;16.20;91.40;;;16.52;100.00;101391.13;4958930;28;20038;-76
2022/07/17 05:22:42;;;;;;;7.45;3.03;;;16.40;91.10;;;16.66;100.00;101390.69;4962368;28;20051;-76
2022/07/17 05:25:09;;;;;;;5.38;3.22;;;16.40;91.50;;;16.72;100.00;101394.91;4960427;28;20062;-76
2022/07/17 05:27:36;;;;;;;5.00;3.10;;;16.50;91.10;;;16.86;100.00;101395.31;4974947;28;20054;-79
2022/07/17 05:30:04;;;;;;;4.55;3.35;;;16.70;91.20;;;16.93;100.00;101409.25;4973555;28;20507;-75
2022/07/17 05:32:31;;;;;;;5.07;3.05;;;16.70;91.10;;;17.01;100.00;101404.59;4963980;28;20062;-76
2022/07/17 05:34:58;;;;;;;5.25;2.80;;;17.10;91.00;;;17.04;100.00;101408.06;4979494;28;20043;-80
2022/07/17 05:37:25;;;;;;;7.40;3.33;;;16.90;90.80;;;17.04;100.00;101410.72;4964814;28;20114;-73
2022/07/17 05:39:52;;;;;;;8.63;3.28;;;16.90;90.40;;;17.02;100.00;101405.47;4948038;28;20052;-76
2022/07/17 05:42:19;;;;;;;5.10;3.08;;;16.90;90.10;;;17.11;100.00;101405.13;4975920;28;20722;-75
2022/07/17 05:44:46;;;;;;;5.72;2.88;;;17.00;90.20;;;17.14;100.00;101415.66;4952677;28;20065;-74
2022/07/17 05:47:13;;;;;;;8.45;2.70;;;17.00;89.30;;;17.16;100.00;101404.97;4955099;28;20074;-74
2022/07/17 05:49:40;;;;;;;4.10;2.50;;;17.10;89.80;;;17.20;100.00;101409.25;4947965;28;20055;-77
2022/07/17 05:52:07;;;;;;;5.32;2.58;;;17.80;90.00;;;17.24;100.00;101407.34;4969627;28;20401;-76
2022/07/17 05:54:34;;;;;;;4.15;2.47;;;17.10;89.90;;;17.35;100.00;101407.84;4954198;28;20435;-73
2022/07/17 05:57:01;;;;;;;6.70;3.20;;;17.20;89.80;;;17.41;100.00;101412.09;4981216;28;20157;-77
2022/07/17 05:59:36;;;;;;;3.65;2.08;;;17.40;90.00;;;17.45;100.00;101416.38;4983784;28;20583;-75
2022/07/17 06:02:03;;;;;;;4.78;2.55;;;17.40;89.50;;;17.57;100.00;101418.59;4990815;28;20044;-76
2022/07/17 06:04:30;;;;;;;4.13;2.60;;;17.40;89.80;;;17.69;100.00;101430.56;5005813;28;20125;-76
2022/07/17 06:06:57;;;;;;;7.53;3.38;;;17.50;89.60;;;17.72;100.00;101426.94;4971760;28;20051;-77
2022/07/17 06:09:24;;;;;;;5.35;3.03;;;17.50;89.50;;;17.78;100.00;101423.13;4970892;28;20054;-77
2022/07/17 06:11:51;;;;;;;6.50;2.45;;;17.60;88.80;;;17.84;100.00;101415.78;4976313;28;20061;-76
2022/07/17 06:14:19;;;;;;;4.35;2.53;;;17.70;89.20;;;17.91;100.00;101419.09;4970774;28;20149;-76
2022/07/17 06:16:46;;;;;;;4.70;2.25;;;17.70;89.20;;;17.99;100.00;101416.13;4974238;28;20039;-77
2022/07/17 06:19:13;;;;;;;4.18;2.58;;;17.80;89.30;;;18.00;100.00;101408.09;4962798;28;20039;-75
2022/07/17 06:21:40;;;;;;;5.40;2.40;;;17.80;88.80;;;18.10;100.00;101413.97;4977756;28;20050;-75
2022/07/17 06:24:07;;;;;;;5.40;2.50;;;17.90;88.60;;;18.23;100.00;101408.16;4971095;28;20042;-76
2022/07/17 06:26:34;;;;;;;6.57;2.13;;;18.00;88.80;;;18.28;100.00;101406.16;4970774;28;20134;-75
2022/07/17 06:29:01;;;;;;;4.70;2.10;;;18.10;87.60;;;18.30;100.00;101398.97;4971042;28;20049;-75
2022/07/17 06:31:28;;;;;;;4.95;2.17;;;18.10;86.50;;;18.43;100.00;101405.56;4970715;28;20085;-75
2022/07/17 06:33:56;;;;;;;5.30;2.08;;;18.20;86.30;;;18.53;100.00;101416.69;4970474;28;20046;-76
2022/07/17 06:36:23;;;;;;;4.65;2.10;;;18.30;86.00;;;18.59;100.00;101422.72;4986747;28;20125;-76
2022/07/17 06:38:50;;;;;;;6.85;2.42;;;18.30;85.40;;;18.66;100.00;101426.88;4955037;28;20121;-76
2022/07/17 06:41:17;;;;;;;3.85;2.38;;;18.40;85.50;;;18.68;98.39;101443.66;4970993;28;20046;-76
2022/07/17 06:43:44;;;;;;;3.63;2.30;;;18.40;84.20;;;18.80;98.00;101431.63;4970522;28;20043;-76
2022/07/17 06:46:11;;;;;;;6.22;2.47;;;18.50;84.20;;;18.88;97.95;101432.16;4954575;28;20050;-76
2022/07/17 06:48:38;;;;;;;3.50;1.77;;;18.60;84.10;;;18.99;93.03;101426.41;4989100;28;20697;-78
2022/07/17 06:51:05;;;;;;;3.78;2.25;;;18.70;82.90;;;19.11;90.44;101425.88;4989936;28;20048;-77
2022/07/17 06:53:32;;;;;;;3.88;1.73;;;18.80;82.30;;;19.15;85.99;101423.97;4972466;28;20034;-76
2022/07/17 06:55:59;;;;;;;9.18;2.28;;;18.80;81.20;;;19.24;92.50;101422.69;4989549;28;20046;-77
2022/07/17 06:58:26;;;;;;;6.30;3.08;;;18.90;82.40;;;19.33;91.88;101426.75;4984945;28;20034;-74
2022/07/17 07:00:53;;;;;;;6.28;1.92;;;19.00;82.40;;;19.34;91.23;101420.47;4978978;28;20852;-76
2022/07/17 07:03:20;;;;;;;5.47;2.45;;;19.00;82.00;;;19.40;90.93;101426.41;4984018;28;20042;-76
2022/07/17 07:05:47;;;;;;;3.88;1.95;;;19.10;81.90;;;19.55;89.42;101421.34;4965157;28;20089;-75
2022/07/17 07:08:14;;;;;;;2.10;1.48;;;19.20;81.70;;;19.58;75.94;101426.53;4982334;28;20084;-76
2022/07/17 07:10:42;;;;;;;4.35;1.98;;;19.20;78.30;;;19.62;74.41;101416.59;4967474;28;20043;-76
2022/07/17 07:13:12;;;;;;;3.28;1.60;;;19.30;77.80;;;19.76;70.69;101422.16;4979335;28;20409;-78
2022/07/17 07:15:39;;;;;;;2.58;1.50;;;19.40;77.00;;;19.87;68.97;101428.78;4973444;28;20054;-75
2022/07/17 07:18:07;;;;;;;7.13;2.13;;;19.40;76.50;;;19.92;67.24;101432.16;4967262;28;20475;-76
2022/07/17 07:20:36;;;;;;;4.72;1.98;;;19.50;75.90;;;20.05;69.49;101425.28;4970789;28;20521;-75
2022/07/17 07:23:03;;;;;;;4.18;2.08;;;19.60;76.20;;;20.18;66.70;101424.69;4955574;28;20089;-74
2022/07/17 07:25:34;;;;;;;5.15;1.70;;;19.70;75.50;;;20.26;65.00;101431.41;4970520;28;20046;-76
2022/07/17 07:28:03;;;;;;;3.05;1.70;;;19.80;75.00;;;20.31;63.01;101425.00;4980961;28;20046;-75
2022/07/17 07:30:31;;;;;;;2.55;1.45;;;19.90;74.00;;;20.39;60.10;101422.81;4987263;28;20133;-75
2022/07/17 07:32:58;;;;;;;3.05;2.00;;;20.00;73.00;;;20.51;57.85;101424.88;4968537;28;20069;-76
2022/07/17 07:35:25;;;;;;;2.17;1.90;;;20.10;72.20;;;20.56;60.38;101416.66;4980280;28;20492;-78
2022/07/17 07:37:52;;;;;;;4.32;2.00;;;20.10;72.80;;;20.60;59.13;101412.00;4990798;28;20039;-76
2022/07/17 07:40:19;;;;;;;3.17;1.70;;;20.20;72.40;;;20.64;59.30;101409.09;4989853;28;20121;-77
2022/07/17 07:42:46;;;;;;;2.72;1.65;;;20.30;72.20;;;20.73;57.27;101409.59;4973860;28;20141;-76
2022/07/17 07:45:13;;;;;;;3.45;1.80;;;20.30;71.30;;;20.83;58.15;101403.72;4988251;28;20817;-76
2022/07/17 07:47:47;;;;;;;2.88;1.42;;;20.40;71.70;;;20.98;57.19;101403.88;4986785;28;20631;-76
2022/07/17 07:50:14;;;;;;;5.88;2.17;;;20.50;71.40;;;21.08;57.11;101401.59;4969790;28;20055;-77
2022/07/17 07:52:42;;;;;;;3.42;1.75;;;20.60;71.20;;;21.15;55.38;101402.13;4979828;28;20410;-78
2022/07/17 07:55:12;;;;;;;3.90;1.73;;;20.70;70.50;;;21.30;55.15;101401.31;4978392;28;20052;-77
2022/07/17 07:57:46;;;;;;;3.70;1.70;;;20.80;70.40;;;21.47;55.35;101399.56;4986877;28;20046;-77
2022/07/17 08:00:14;;;;;;;3.92;1.90;;;20.90;70.40;;;21.47;54.29;101405.78;4998217;28;20038;-76
2022/07/17 08:02:41;;;;;;;2.75;1.60;;;21.00;69.90;;;21.68;53.28;101408.28;4999262;28;20053;-77
2022/07/17 08:05:08;;;;;;;4.22;1.80;;;21.10;69.60;;;21.85;53.66;101410.00;4971996;28;20038;-77
2022/07/17 08:07:36;;;;;;;2.55;1.63;;;21.30;69.90;;;21.89;51.87;101402.69;4980442;28;20074;-77
2022/07/17 08:10:04;;;;;;;4.18;2.10;;;21.40;68.70;;;21.86;51.52;101402.84;4997476;28;20086;-77
2022/07/17 08:12:31;;;;;;;4.18;1.65;;;21.50;68.40;;;21.91;51.49;101396.28;4995089;28;20049;-77
2022/07/17 08:15:18;;;;;;;2.65;1.42;;;21.50;68.30;;;21.98;49.00;101399.50;4979760;28;20121;-78
2022/07/17 08:17:47;;;;;;;3.13;1.40;;;21.60;66.80;;;22.02;48.66;101397.53;4990780;28;20053;-77
2022/07/17 08:20:15;;;;;;;6.07;1.90;;;21.70;66.50;;;22.06;49.43;101402.59;4991216;28;20042;-76
2022/07/17 08:22:44;;;;;;;4.22;1.80;;;21.70;66.80;;;22.15;49.40;101393.16;4976199;28;20070;-78
2022/07/17 08:25:31;;;;;;;4.75;2.08;;;21.80;66.80;;;22.32;48.33;101392.22;4974144;28;20066;-77
2022/07/17 08:27:59;;;;;;;2.80;1.40;;;21.90;66.20;;;22.43;46.68;101394.28;4956258;28;20050;-76
2022/07/17 08:30:26;;;;;;;2.22;1.52;;;21.90;65.20;;;22.48;47.52;101394.91;4988920;28;20060;-77
2022/07/17 08:32:53;;;;;;;3.83;1.55;;;22.00;65.50;;;22.54;47.75;101393.66;4961169;28;20042;-78
2022/07/17 08:35:21;;;;;;;2.38;1.50;;;22.10;65.60;;;22.60;46.26;101397.81;4982706;28;20039;-78
2022/07/17 08:37:51;;;;;;;6.00;1.42;;;22.10;64.50;;;22.69;46.88;101401.78;4956383;28;20047;-78
2022/07/17 08:40:31;;;;;;;3.55;1.45;;;22.20;64.90;;;22.85;44.45;101404.41;4971104;28;20061;-77
2022/07/17 08:43:02;;;;;;;2.15;1.77;;;22.30;63.20;;;22.86;43.29;101404.31;4976120;28;20116;-76
2022/07/17 08:45:29;;;;;;;2.67;1.92;;;22.40;62.50;;;22.98;43.12;101397.38;4975013;28;20146;-77
2022/07/17 08:47:57;;;;;;;6.25;1.60;;;22.50;62.20;;;23.12;43.78;101395.69;4988655;28;20117;-78
2022/07/17 08:50:32;;;;;;;4.45;1.67;;;22.60;62.70;;;23.15;42.54;101399.00;4968189;28;20043;-76
2022/07/17 08:53:00;;;;;;;2.28;1.45;;;22.70;61.60;;;23.18;41.91;101397.97;4988669;28;20073;-77
2022/07/17 08:55:28;;;;;;;3.65;1.70;;;22.80;61.00;;;23.25;42.00;101395.78;4975964;28;20050;-77
2022/07/17 08:57:55;;;;;;;2.60;1.40;;;22.80;60.90;;;23.31;41.85;101406.16;4968323;28;20098;-77
2022/07/17 09:00:24;;;;;;;2.70;1.40;;;22.90;60.50;;;23.39;41.81;101401.19;4973558;28;20046;-77
2022/07/17 09:03:06;;;;;;;11.25;1.80;;;22.90;60.70;;;23.42;41.35;101398.31;4975952;28;20130;-77
2022/07/17 09:05:38;;;;;;;2.80;1.50;;;23.00;59.80;;;23.65;39.63;101396.88;4972662;28;20053;-77
2022/07/17 09:08:09;;;;;;;2.35;1.67;;;23.10;59.20;;;23.64;40.08;101400.50;4958297;28;20447;-77
2022/07/17 09:10:42;;;;;;;3.97;1.75;;;23.20;59.00;;;23.73;41.09;101403.59;4991148;28;20137;-79
2022/07/17 09:13:28;;;;;;;2.72;1.40;;;23.30;60.10;;;23.86;39.39;101403.66;4981478;28;20055;-77
2022/07/17 09:16:07;;;;;;;4.50;1.58;;;23.30;58.50;;;23.87;39.76;101408.91;4983793;28;20463;-77
2022/07/17 09:18:49;;;;;;;2.17;1.33;;;23.40;58.90;;;23.96;39.94;101403.94;4988484;28;20076;-76
2022/07/17 09:21:25;;;;;;;3.33;1.90;;;23.40;58.60;;;23.99;40.54;101398.34;4989917;28;20042;-76
2022/07/17 09:24:06;;;;;;;5.20;2.15;;;23.50;59.50;;;24.04;38.89;101393.56;4972355;28;20105;-77
2022/07/17 09:26:37;;;;;;;2.80;1.45;;;23.60;58.00;;;24.03;37.78;101395.41;4988464;28;20081;-78
2022/07/17 09:29:04;;;;;;;4.22;1.70;;;23.60;56.80;;;24.10;41.04;101385.13;4972054;28;20141;-78
2022/07/17 09:31:33;;;;;;;1.63;1.20;;;23.60;59.20;;;24.21;39.94;101390.66;4974561;28;20157;-78
2022/07/17 09:34:01;;;;;;;3.00;1.55;;;23.70;58.50;;;24.31;39.81;101388.22;4994271;28;20503;-78
2022/07/17 09:36:29;;;;;;;8.55;1.60;;;23.80;58.40;;;24.33;39.77;101383.59;4981616;28;20822;-79
2022/07/17 09:38:58;;;;;;;2.72;1.40;;;23.90;58.40;;;24.43;38.21;101381.16;4967494;28;20046;-79
2022/07/17 09:41:26;;;;;;;3.03;1.90;;;23.90;57.30;;;24.52;38.08;101385.03;5004562;28;20039;-78
2022/07/17 09:43:57;;;;;;;3.17;1.42;;;24.00;57.00;;;24.57;37.67;101376.69;4981343;28;20493;-81
2022/07/17 09:46:31;;;;;;;2.95;1.30;;;24.10;56.80;;;24.59;37.64;101383.69;4951078;28;20137;-81
2022/07/17 09:49:03;;;;;;;2.65;1.40;;;24.10;56.50;;;24.67;36.45;101376.91;4977671;28;20330;-81
2022/07/17 09:51:39;;;;;;;3.63;1.30;;;24.20;55.80;;;24.71;37.09;101359.59;4980893;28;20109;-82
2022/07/17 09:54:13;;;;;;;4.57;1.73;;;24.20;56.00;;;24.82;37.11;101365.13;4985736;28;20057;-80
2022/07/17 09:56:40;;;;;;;2.67;1.30;;;24.30;55.90;;;24.76;37.84;101352.09;4965064;28;20051;-82
2022/07/17 09:59:34;;;;;;;2.10;1.20;;;24.40;56.40;;;24.94;35.91;101359.88;4980312;28;20113;-81
2022/07/17 10:02:24;;;;;;;1.42;1.30;;;24.40;55.40;;;25.00;35.98;101360.31;4942050;29;20055;-80
2022/07/17 10:04:55;;;;;;;2.17;1.50;;;24.50;55.10;;;25.15;34.64;101363.75;4904383;29;20044;-78
2022/07/17 10:07:23;;;;;;;3.65;2.10;;;24.50;53.90;;;25.08;35.17;101366.97;4906716;29;20616;-77
2022/07/17 10:09:50;;;;;;;2.10;1.40;;;24.60;54.10;;;25.21;34.67;101362.47;4918474;29;20084;-78
2022/07/17 10:12:19;;;;;;;2.95;1.58;;;24.70;54.00;;;25.43;35.50;101367.19;4924971;29;20047;-80
2022/07/17 10:14:49;;;;;;;5.03;1.27;;;24.70;54.70;;;25.56;33.63;101358.25;4934841;29;20051;-76
2022/07/17 10:17:21;;;;;;;2.17;1.20;;;24.90;52.90;;;25.69;33.33;101353.69;4934015;29;20624;-79